Time;durP1;ratioP1;P1;durP2;ratioP2;P2;SDS_P1;SDS_P2;PMS_P1;PMS_P2;Temp;Humidity;BMP_temperature;BMP_pressure;BME280_temperature;BME280_humidity;BME280_pressure;Samples;Min_cycle;Max_cycle;Signal;HPM_P1;HPM_P2
2020/12/13 00:01:46;;;;;;;79.25;43.30;;;5.30;99.90;;;;;;5080006;28;20200;-49
2020/12/13 00:04:14;;;;;;;90.82;47.00;;;5.70;99.90;;;;;;5073315;28;20692;-48
2020/12/13 00:06:40;;;;;;;88.15;45.53;;;5.50;99.90;;;;;;5073649;28;20203;-49
2020/12/13 00:09:07;;;;;;;81.53;42.67;;;5.60;99.90;;;;;;5073467;28;20294;-49
2020/12/13 00:11:35;;;;;;;93.55;44.05;;;5.70;99.90;;;;;;5073521;28;20199;-48
2020/12/13 00:14:02;;;;;;;92.15;43.45;;;5.50;99.90;;;;;;5073436;28;20691;-48
2020/12/13 00:16:29;;;;;;;82.75;42.10;;;5.50;99.90;;;;;;5092385;28;20206;-48
2020/12/13 00:18:55;;;;;;;79.07;43.85;;;5.50;99.90;;;;;;5093517;28;20223;-48
2020/12/13 00:21:26;;;;;;;77.25;43.63;;;5.60;99.90;;;;;;5093517;28;20202;-47
2020/12/13 00:23:53;;;;;;;83.80;41.85;;;5.50;99.90;;;;;;5082465;28;20555;-48
2020/12/13 00:26:20;;;;;;;88.00;44.85;;;5.40;99.90;;;;;;5073269;28;20278;-49
2020/12/13 00:28:47;;;;;;;86.13;43.60;;;5.50;99.90;;;;;;5073067;28;20225;-48
2020/12/13 00:31:14;;;;;;;87.95;45.05;;;5.50;99.90;;;;;;5073030;28;20249;-48
2020/12/13 00:33:42;;;;;;;88.35;43.38;;;5.50;99.90;;;;;;5072761;28;20566;-48
2020/12/13 00:36:08;;;;;;;79.38;41.92;;;5.60;99.90;;;;;;5071767;28;20203;-48
2020/12/13 00:38:35;;;;;;;91.53;44.15;;;5.50;99.90;;;;;;5072988;28;20304;-47
2020/12/13 00:41:02;;;;;;;82.88;44.72;;;5.50;99.90;;;;;;5072843;28;20615;-47
2020/12/13 00:43:29;;;;;;;88.80;44.67;;;5.60;99.90;;;;;;5072560;28;20192;-48
2020/12/13 00:45:55;;;;;;;91.65;45.65;;;5.40;99.90;;;;;;5072752;28;20290;-47
2020/12/13 00:48:21;;;;;;;83.97;45.72;;;5.40;99.90;;;;;;5072362;28;20211;-50
2020/12/13 00:50:48;;;;;;;82.88;45.15;;;5.60;99.90;;;;;;5073244;28;20318;-49
2020/12/13 00:53:15;;;;;;;86.85;45.35;;;5.30;99.90;;;;;;5072396;28;20571;-48
2020/12/13 00:55:42;;;;;;;91.28;44.47;;;5.60;99.90;;;;;;5073263;28;20199;-48
2020/12/13 00:58:13;;;;;;;96.07;45.83;;;5.30;99.90;;;;;;5071045;28;20231;-48
2020/12/13 01:00:40;;;;;;;97.88;47.60;;;5.10;99.90;;;;;;5077013;28;20187;-48
2020/12/13 01:03:06;;;;;;;91.68;45.90;;;5.50;99.90;;;;;;5093033;28;20730;-48
2020/12/13 01:05:34;;;;;;;92.93;46.10;;;5.40;99.90;;;;;;5092577;28;20222;-47
2020/12/13 01:08:00;;;;;;;93.78;46.00;;;5.40;99.90;;;;;;5091680;28;20309;-48
2020/12/13 01:10:27;;;;;;;103.93;46.40;;;5.20;99.90;;;;;;5092534;28;20807;-48
2020/12/13 01:12:54;;;;;;;94.15;45.28;;;5.50;99.90;;;;;;5092131;28;20736;-48
2020/12/13 01:15:21;;;;;;;94.18;45.53;;;5.20;99.90;;;;;;5081732;28;20230;-48
2020/12/13 01:17:49;;;;;;;106.47;47.90;;;5.30;99.90;;;;;;5072220;28;20218;-47
2020/12/13 01:20:17;;;;;;;104.97;48.90;;;5.30;99.90;;;;;;5072252;28;20195;-48
2020/12/13 01:22:43;;;;;;;101.57;47.85;;;5.20;99.90;;;;;;5070656;28;20215;-48
2020/12/13 01:25:10;;;;;;;107.60;50.83;;;5.30;99.90;;;;;;5070859;28;20626;-47
2020/12/13 01:27:37;;;;;;;93.18;47.80;;;5.20;99.90;;;;;;5070876;28;20243;-50
2020/12/13 01:30:06;;;;;;;94.47;45.22;;;5.30;99.90;;;;;;5072224;28;20269;-49
2020/12/13 01:32:37;;;;;;;88.95;44.08;;;5.30;99.90;;;;;;5071668;28;20623;-47
2020/12/13 01:35:04;;;;;;;90.45;44.90;;;5.30;99.90;;;;;;5072413;28;20574;-46
2020/12/13 01:37:30;;;;;;;96.47;45.55;;;5.60;99.90;;;;;;5072864;28;20207;-47
2020/12/13 01:39:57;;;;;;;96.30;44.17;;;5.30;99.90;;;;;;5072977;28;20606;-48
2020/12/13 01:42:23;;;;;;;91.65;46.72;;;5.50;99.90;;;;;;5079396;28;20229;-48
2020/12/13 01:44:50;;;;;;;98.93;48.25;;;5.40;99.90;;;;;;5072905;28;20221;-47
2020/12/13 01:47:18;;;;;;;103.43;47.25;;;5.30;99.90;;;;;;5072859;28;20199;-48
2020/12/13 01:49:46;;;;;;;111.03;50.72;;;5.20;99.90;;;;;;5072257;28;20666;-46
2020/12/13 01:55:04;;;;;;;110.68;48.20;;;5.30;99.90;;;;;;5072942;28;20200;-47
2020/12/13 01:57:34;;;;;;;92.22;44.60;;;5.30;99.90;;;;;;5072139;28;20218;-47
2020/12/13 02:00:06;;;;;;;105.60;50.55;;;5.20;99.90;;;;;;5072516;28;20656;-48
2020/12/13 02:02:38;;;;;;;109.75;48.63;;;5.10;99.90;;;;;;5091684;28;20206;-47
2020/12/13 02:05:05;;;;;;;109.25;48.90;;;5.30;99.90;;;;;;5091883;28;20869;-48
2020/12/13 02:07:32;;;;;;;101.38;49.47;;;5.20;99.90;;;;;;5075068;28;20274;-48
2020/12/13 02:09:59;;;;;;;96.97;48.00;;;5.50;99.90;;;;;;5071706;28;20211;-48
2020/12/13 02:12:26;;;;;;;97.18;46.60;;;5.50;99.90;;;;;;5074927;28;20198;-48
2020/12/13 02:14:52;;;;;;;94.78;45.83;;;5.40;99.90;;;;;;5091982;28;20239;-48
2020/12/13 02:17:20;;;;;;;98.10;46.42;;;5.30;99.90;;;;;;5091783;28;20190;-48
2020/12/13 02:19:48;;;;;;;100.10;48.92;;;5.40;99.90;;;;;;5095852;28;20188;-49
2020/12/13 02:22:16;;;;;;;93.32;45.47;;;5.20;99.90;;;;;;5096001;28;20205;-48
2020/12/13 02:24:42;;;;;;;104.00;46.65;;;5.20;99.90;;;;;;5095629;28;20263;-48
2020/12/13 02:27:09;;;;;;;116.00;48.05;;;4.80;99.90;;;;;;5094362;28;20294;-48
2020/12/13 02:29:36;;;;;;;99.55;47.05;;;5.40;99.90;;;;;;5095594;28;20223;-49
2020/12/13 02:32:03;;;;;;;120.78;48.58;;;5.10;99.90;;;;;;5092464;28;20198;-47
2020/12/13 02:34:30;;;;;;;109.30;48.80;;;5.20;99.90;;;;;;5094271;28;20190;-49
2020/12/13 02:36:56;;;;;;;98.82;46.03;;;5.20;99.90;;;;;;5095518;28;20187;-48
2020/12/13 02:39:24;;;;;;;96.22;47.17;;;5.30;99.90;;;;;;5095494;28;20230;-48
2020/12/13 02:42:01;;;;;;;106.35;51.45;;;4.60;99.90;;;;;;5095918;28;20215;-47
2020/12/13 02:44:28;;;;;;;91.97;46.10;;;5.20;99.90;;;;;;5095205;28;20194;-48
2020/12/13 02:46:55;;;;;;;92.45;44.75;;;5.10;99.90;;;;;;5095209;28;20313;-48
2020/12/13 02:49:21;;;;;;;93.22;46.80;;;5.20;99.90;;;;;;5095136;28;20284;-48
2020/12/13 02:51:48;;;;;;;96.15;45.55;;;5.30;99.90;;;;;;5095261;28;20247;-47
2020/12/13 02:54:14;;;;;;;112.03;46.53;;;5.20;99.90;;;;;;5093437;28;20648;-48
2020/12/13 02:56:42;;;;;;;102.85;45.75;;;5.30;99.90;;;;;;5095067;28;20610;-47
2020/12/13 02:59:09;;;;;;;95.43;47.55;;;5.30;99.90;;;;;;5075831;28;20312;-48
2020/12/13 03:01:36;;;;;;;104.95;45.75;;;5.60;99.90;;;;;;5086763;28;20204;-48
2020/12/13 03:04:02;;;;;;;104.55;47.03;;;5.10;99.90;;;;;;5094890;28;20199;-47
2020/12/13 03:06:29;;;;;;;94.00;43.10;;;5.40;99.90;;;;;;5093555;28;20738;-48
2020/12/13 03:08:55;;;;;;;96.35;49.20;;;5.60;99.90;;;;;;5094742;28;20219;-48
2020/12/13 03:11:22;;;;;;;102.10;46.15;;;5.20;99.90;;;;;;5094836;28;20604;-48
2020/12/13 03:13:51;;;;;;;99.82;47.42;;;5.30;99.90;;;;;;5094167;28;20218;-48
2020/12/13 03:16:18;;;;;;;107.53;47.42;;;5.30;99.90;;;;;;5093506;28;20572;-47
2020/12/13 03:18:45;;;;;;;91.03;44.05;;;5.30;99.90;;;;;;5092936;28;20214;-48
2020/12/13 03:21:11;;;;;;;95.30;46.75;;;5.40;99.90;;;;;;5093282;28;20596;-48
2020/12/13 03:23:38;;;;;;;89.30;44.28;;;5.30;99.90;;;;;;5086955;28;20206;-48
2020/12/13 03:26:04;;;;;;;91.97;46.45;;;5.40;99.90;;;;;;5074364;28;20242;-47
2020/12/13 03:28:31;;;;;;;88.50;46.17;;;5.60;99.90;;;;;;5074549;28;20242;-47
2020/12/13 03:30:58;;;;;;;91.20;46.72;;;5.20;99.90;;;;;;5073535;28;20215;-48
2020/12/13 03:33:25;;;;;;;99.88;45.83;;;5.30;99.90;;;;;;5074696;28;20191;-48
2020/12/13 03:35:52;;;;;;;101.78;46.13;;;5.20;99.90;;;;;;5074883;28;20207;-47
2020/12/13 03:38:18;;;;;;;102.20;46.47;;;5.40;99.90;;;;;;5074735;28;20261;-48
2020/12/13 03:40:45;;;;;;;91.43;44.30;;;5.10;99.90;;;;;;5074531;28;20188;-48
2020/12/13 03:43:11;;;;;;;108.63;49.58;;;5.20;99.90;;;;;;5073850;28;20612;-47
2020/12/13 03:45:38;;;;;;;90.30;45.97;;;5.50;99.90;;;;;;5074262;28;20191;-48
2020/12/13 03:48:05;;;;;;;87.43;45.88;;;5.50;99.90;;;;;;5076036;28;20211;-46
2020/12/13 03:50:38;;;;;;;100.40;46.80;;;5.40;99.90;;;;;;5088029;28;20223;-46
2020/12/13 03:53:09;;;;;;;93.65;46.03;;;5.30;99.90;;;;;;5093869;28;20268;-48
2020/12/13 03:55:36;;;;;;;108.60;48.22;;;5.40;99.90;;;;;;5094182;28;20194;-46
2020/12/13 03:58:03;;;;;;;98.38;45.60;;;5.30;99.90;;;;;;5094409;28;20257;-48
2020/12/13 04:00:29;;;;;;;96.70;46.65;;;5.50;99.90;;;;;;5090679;28;20248;-49
2020/12/13 04:02:56;;;;;;;97.03;45.75;;;5.40;99.90;;;;;;5073216;28;20680;-48
2020/12/13 04:05:24;;;;;;;100.30;46.70;;;5.40;99.90;;;;;;5073591;28;20252;-47
2020/12/13 04:07:51;;;;;;;102.28;48.70;;;5.30;99.90;;;;;;5073658;28;20243;-47
2020/12/13 04:10:18;;;;;;;106.03;48.85;;;5.20;99.90;;;;;;5073286;28;20237;-48
2020/12/13 04:12:45;;;;;;;99.38;45.25;;;5.50;99.90;;;;;;5079337;28;20274;-47
2020/12/13 04:15:12;;;;;;;96.68;46.30;;;5.20;99.90;;;;;;5091305;28;20238;-48
2020/12/13 04:17:39;;;;;;;98.63;47.15;;;5.30;99.90;;;;;;5093415;28;20233;-48
2020/12/13 04:20:06;;;;;;;95.18;46.70;;;5.40;99.90;;;;;;5093619;28;20186;-46
2020/12/13 04:22:34;;;;;;;111.18;46.70;;;5.40;99.90;;;;;;5091883;28;20252;-48
2020/12/13 04:25:01;;;;;;;109.72;46.03;;;5.40;99.90;;;;;;5093433;28;20682;-48
2020/12/13 04:27:27;;;;;;;88.35;45.45;;;5.50;99.90;;;;;;5093665;28;20263;-49
2020/12/13 04:29:54;;;;;;;101.28;47.15;;;5.60;99.90;;;;;;5093023;28;20230;-49
2020/12/13 04:32:21;;;;;;;101.63;48.17;;;5.60;99.90;;;;;;5092921;28;20709;-49
2020/12/13 04:34:48;;;;;;;98.20;47.65;;;5.20;99.90;;;;;;5093320;28;20608;-49
2020/12/13 04:37:14;;;;;;;108.68;49.35;;;5.60;99.90;;;;;;5093745;28;20616;-48
2020/12/13 04:39:42;;;;;;;94.35;48.38;;;5.60;99.90;;;;;;5093302;28;20280;-48
2020/12/13 04:42:08;;;;;;;110.30;47.63;;;5.10;99.90;;;;;;5075709;28;20290;-49
2020/12/13 04:44:36;;;;;;;108.22;50.38;;;5.40;99.90;;;;;;5072423;28;20256;-48
2020/12/13 04:47:06;;;;;;;114.78;50.60;;;5.20;99.90;;;;;;5073061;28;20770;-48
2020/12/13 04:49:33;;;;;;;116.07;47.58;;;5.40;99.90;;;;;;5073449;28;20277;-47
2020/12/13 04:52:01;;;;;;;129.85;51.25;;;5.20;99.90;;;;;;5071665;28;20207;-48
2020/12/13 04:54:29;;;;;;;114.45;51.08;;;5.20;99.90;;;;;;5072461;28;20203;-48
2020/12/13 04:56:58;;;;;;;101.50;49.45;;;5.30;99.90;;;;;;5072710;28;20639;-48
2020/12/13 04:59:25;;;;;;;116.25;50.50;;;5.50;99.90;;;;;;5072315;28;20249;-48
2020/12/13 05:01:53;;;;;;;105.60;48.90;;;5.30;99.90;;;;;;5087095;28;20187;-48
2020/12/13 05:04:19;;;;;;;103.70;48.13;;;5.40;99.90;;;;;;5092503;28;20190;-48
2020/12/13 05:06:46;;;;;;;96.32;47.10;;;5.10;99.90;;;;;;5086217;28;20269;-47
2020/12/13 05:09:14;;;;;;;118.40;46.90;;;5.30;99.90;;;;;;5072946;28;20211;-47
2020/12/13 05:11:42;;;;;;;98.20;48.17;;;5.30;99.90;;;;;;5073192;28;20187;-48
2020/12/13 05:14:09;;;;;;;117.85;50.65;;;5.30;99.90;;;;;;5089313;28;20260;-48
2020/12/13 05:16:36;;;;;;;112.38;49.15;;;5.30;99.90;;;;;;5093046;28;20260;-47
2020/12/13 05:19:05;;;;;;;114.35;49.65;;;5.20;99.90;;;;;;5092968;28;20618;-48
2020/12/13 05:21:32;;;;;;;111.90;47.83;;;5.20;99.90;;;;;;5092960;28;20222;-47
2020/12/13 05:24:00;;;;;;;105.32;49.05;;;5.40;99.90;;;;;;5093430;28;20222;-46
2020/12/13 05:26:27;;;;;;;101.72;48.35;;;5.60;99.90;;;;;;5092763;28;20608;-48
2020/12/13 05:28:54;;;;;;;116.55;47.58;;;5.20;99.90;;;;;;5092859;28;20214;-48
2020/12/13 05:31:24;;;;;;;104.47;48.65;;;5.20;99.90;;;;;;5091450;28;20764;-48
2020/12/13 05:33:55;;;;;;;107.55;48.72;;;5.50;99.90;;;;;;5072591;28;20203;-48
2020/12/13 05:36:22;;;;;;;113.78;47.40;;;5.50;99.90;;;;;;5072137;28;20195;-47
2020/12/13 05:38:48;;;;;;;95.40;47.75;;;5.30;99.90;;;;;;5071924;28;20207;-47
2020/12/13 05:41:16;;;;;;;108.78;46.88;;;5.10;99.90;;;;;;5071968;28;20252;-48
2020/12/13 05:43:46;;;;;;;111.60;46.78;;;5.40;99.90;;;;;;5071624;28;20223;-48
2020/12/13 05:51:40;;;;;;;103.13;44.20;;;5.40;99.90;;;;;;5070122;28;20325;-48
2020/12/13 05:54:11;;;;;;;107.97;46.95;;;5.30;99.90;;;;;;5071140;28;20471;-47
2020/12/13 05:56:38;;;;;;;100.85;45.55;;;5.40;99.90;;;;;;5071934;28;20211;-47
2020/12/13 05:59:06;;;;;;;89.30;43.83;;;4.90;99.90;;;;;;5071895;28;20426;-48
2020/12/13 06:01:36;;;;;;;102.63;46.95;;;5.10;99.90;;;;;;5082402;28;20198;-48
2020/12/13 06:04:09;;;;;;;97.15;44.78;;;5.30;99.90;;;;;;5091496;28;20191;-49
2020/12/13 06:06:42;;;;;;;110.47;47.38;;;5.40;99.90;;;;;;5091948;28;20194;-47
2020/12/13 06:09:10;;;;;;;100.20;44.90;;;5.20;99.90;;;;;;5091814;28;20290;-48
2020/12/13 06:11:45;;;;;;;103.65;46.20;;;5.40;99.90;;;;;;5091769;28;20218;-48
2020/12/13 06:14:22;;;;;;;106.00;46.55;;;5.10;99.90;;;;;;5091272;28;20663;-48
2020/12/13 06:16:50;;;;;;;95.30;45.60;;;5.30;99.90;;;;;;5091890;28;20194;-48
2020/12/13 06:19:20;;;;;;;96.90;44.78;;;5.30;99.90;;;;;;5091730;28;20267;-48
2020/12/13 06:21:48;;;;;;;91.00;44.50;;;5.20;99.90;;;;;;5091766;28;20252;-47
2020/12/13 06:24:14;;;;;;;102.15;43.67;;;5.40;99.90;;;;;;5081920;28;20226;-49
2020/12/13 06:26:41;;;;;;;89.55;44.53;;;5.40;99.90;;;;;;5070016;28;20637;-48
2020/12/13 06:29:08;;;;;;;88.50;43.45;;;5.10;99.90;;;;;;5071395;28;20207;-48
2020/12/13 06:31:36;;;;;;;96.88;45.60;;;5.50;99.90;;;;;;5071456;28;20226;-47
2020/12/13 06:34:04;;;;;;;86.45;41.72;;;5.20;99.90;;;;;;5071008;28;20610;-49
2020/12/13 06:36:33;;;;;;;88.45;42.40;;;5.40;99.90;;;;;;5071452;28;20191;-48
2020/12/13 06:39:01;;;;;;;82.95;40.85;;;5.30;99.90;;;;;;5071409;28;20573;-48
2020/12/13 06:41:29;;;;;;;97.32;45.35;;;5.20;99.90;;;;;;5071106;28;20652;-48
2020/12/13 06:44:05;;;;;;;93.38;44.22;;;5.30;99.90;;;;;;5071163;28;20269;-46
2020/12/13 06:46:32;;;;;;;91.75;44.88;;;5.20;99.90;;;;;;5069868;28;20203;-48
2020/12/13 06:48:59;;;;;;;95.15;45.45;;;5.50;99.90;;;;;;5071167;28;20207;-48
2020/12/13 06:51:28;;;;;;;86.47;41.20;;;5.30;99.90;;;;;;5070877;28;20228;-47
2020/12/13 06:53:56;;;;;;;84.45;42.40;;;5.30;99.90;;;;;;5069367;28;20209;-47
2020/12/13 06:56:23;;;;;;;81.97;42.72;;;5.50;99.90;;;;;;5071140;28;20274;-48
2020/12/13 06:58:58;;;;;;;73.97;41.65;;;5.50;99.90;;;;;;5070844;28;20269;-48
2020/12/13 07:01:28;;;;;;;83.82;41.17;;;5.60;99.90;;;;;;5081963;28;20545;-47
2020/12/13 07:03:56;;;;;;;90.88;41.90;;;5.20;99.90;;;;;;5091012;28;20206;-47
2020/12/13 07:06:41;;;;;;;76.75;41.25;;;5.10;99.90;;;;;;5094260;28;20201;-49
2020/12/13 07:09:12;;;;;;;75.22;40.60;;;5.40;99.90;;;;;;5095088;28;20215;-48
2020/12/13 07:11:40;;;;;;;87.85;41.55;;;5.30;99.90;;;;;;5094866;28;20681;-48
2020/12/13 07:14:10;;;;;;;88.10;41.92;;;5.30;99.90;;;;;;5094529;28;20275;-49
2020/12/13 07:16:38;;;;;;;73.25;40.28;;;5.40;99.90;;;;;;5080455;28;20294;-49
2020/12/13 07:19:09;;;;;;;78.63;38.58;;;5.20;99.90;;;;;;5074387;28;20215;-50
2020/12/13 07:21:37;;;;;;;69.95;40.70;;;5.40;99.90;;;;;;5074668;28;20706;-50
2020/12/13 07:24:04;;;;;;;68.45;37.60;;;5.20;99.90;;;;;;5074417;28;20195;-49
2020/12/13 07:26:33;;;;;;;68.25;37.70;;;5.60;99.90;;;;;;5074443;28;20223;-49
2020/12/13 07:29:01;;;;;;;70.20;37.40;;;5.20;99.90;;;;;;5074966;28;20223;-50
2020/12/13 07:31:35;;;;;;;62.47;37.60;;;5.20;99.90;;;;;;5074526;28;20765;-49
2020/12/13 07:34:03;;;;;;;78.43;39.15;;;5.60;99.90;;;;;;5072870;28;20202;-49
2020/12/13 07:36:29;;;;;;;72.43;39.75;;;5.70;99.90;;;;;;5073073;28;20195;-49
2020/12/13 07:38:56;;;;;;;89.22;44.60;;;5.50;99.90;;;;;;5074489;28;20284;-49
2020/12/13 07:41:25;;;;;;;77.45;42.03;;;5.50;99.90;;;;;;5074214;28;20241;-50
2020/12/13 07:43:58;;;;;;;83.45;39.50;;;5.70;99.90;;;;;;5073371;28;20587;-49
2020/12/13 07:46:26;;;;;;;85.80;42.47;;;5.70;99.90;;;;;;5072818;28;20282;-50
2020/12/13 07:49:10;;;;;;;90.70;45.50;;;5.30;99.90;;;;;;5074014;28;20762;-50
2020/12/13 07:51:39;;;;;;;90.22;43.65;;;5.20;99.90;;;;;;5073751;28;20337;-47
2020/12/13 07:54:14;;;;;;;73.88;41.65;;;5.20;99.90;;;;;;5073390;28;20196;-49
2020/12/13 07:56:40;;;;;;;84.63;41.13;;;5.20;99.90;;;;;;5074020;28;20220;-47
2020/12/13 07:59:09;;;;;;;77.43;39.28;;;5.20;99.90;;;;;;5073684;28;20280;-50
2020/12/13 08:01:36;;;;;;;78.05;41.30;;;5.20;99.90;;;;;;5085914;28;20244;-47
2020/12/13 08:04:02;;;;;;;78.38;40.30;;;5.40;99.90;;;;;;5094188;28;20240;-50
2020/12/13 08:06:29;;;;;;;75.72;42.17;;;5.30;99.90;;;;;;5095346;28;20663;-49
2020/12/13 08:08:56;;;;;;;75.40;40.95;;;5.40;99.90;;;;;;5095445;28;20215;-50
2020/12/13 08:11:23;;;;;;;76.30;39.88;;;5.40;99.90;;;;;;5095503;28;20287;-49
2020/12/13 08:13:50;;;;;;;76.00;41.42;;;5.40;99.90;;;;;;5085786;28;20199;-50
2020/12/13 08:16:18;;;;;;;80.55;39.70;;;5.60;99.90;;;;;;5074888;28;20234;-50
2020/12/13 08:18:46;;;;;;;72.90;39.50;;;5.60;99.90;;;;;;5075087;28;20214;-49
2020/12/13 08:21:17;;;;;;;72.88;40.67;;;5.60;99.90;;;;;;5074425;28;20599;-49
2020/12/13 08:23:48;;;;;;;74.32;40.65;;;5.40;99.90;;;;;;5073292;28;20261;-49
2020/12/13 08:26:16;;;;;;;79.05;41.97;;;5.40;99.90;;;;;;5073278;28;20195;-49
2020/12/13 08:28:46;;;;;;;80.95;41.50;;;4.90;99.90;;;;;;5073230;28;20222;-49
2020/12/13 08:31:16;;;;;;;69.57;41.65;;;5.40;99.90;;;;;;5078918;28;20214;-49
2020/12/13 08:33:43;;;;;;;72.38;41.72;;;5.50;99.90;;;;;;5093173;28;20700;-49
2020/12/13 08:36:20;;;;;;;72.97;40.17;;;5.60;99.90;;;;;;5093199;28;20695;-50
2020/12/13 08:39:00;;;;;;;70.88;39.40;;;5.60;99.90;;;;;;5093180;28;20225;-49
2020/12/13 08:41:26;;;;;;;68.47;39.22;;;5.60;99.90;;;;;;5093571;28;20194;-49
2020/12/13 08:43:53;;;;;;;72.05;38.88;;;5.30;99.90;;;;;;5088677;28;20274;-49
2020/12/13 08:46:37;;;;;;;70.63;37.95;;;5.50;99.90;;;;;;5083745;28;20256;-49
2020/12/13 08:49:05;;;;;;;69.43;39.20;;;5.60;99.90;;;;;;5093704;28;20236;-51
2020/12/13 08:51:32;;;;;;;65.20;39.72;;;5.70;99.90;;;;;;5094444;28;20218;-49
2020/12/13 08:54:02;;;;;;;69.40;39.10;;;5.80;99.90;;;;;;5092811;28;20612;-48
2020/12/13 08:56:33;;;;;;;73.88;42.08;;;5.90;99.90;;;;;;5091780;28;20203;-48
2020/12/13 08:59:01;;;;;;;70.90;38.50;;;5.80;99.90;;;;;;5092872;28;20296;-49
2020/12/13 09:01:30;;;;;;;71.30;39.53;;;5.60;99.90;;;;;;5081581;28;20194;-48
2020/12/13 09:03:57;;;;;;;65.85;39.60;;;5.50;99.90;;;;;;5072057;28;20218;-49
2020/12/13 09:06:29;;;;;;;64.88;36.42;;;5.50;99.90;;;;;;5072125;28;20199;-49
2020/12/13 09:09:08;;;;;;;63.45;38.67;;;5.60;99.90;;;;;;5072543;28;20217;-49
2020/12/13 09:11:34;;;;;;;62.63;37.20;;;5.80;99.90;;;;;;5072489;28;20696;-49
2020/12/13 09:14:01;;;;;;;64.68;36.70;;;5.60;99.90;;;;;;5086369;28;20270;-49
2020/12/13 09:16:30;;;;;;;60.88;38.08;;;5.70;99.90;;;;;;5072779;28;20226;-49
2020/12/13 09:19:04;;;;;;;62.03;36.45;;;5.80;99.90;;;;;;5072177;28;20227;-49
2020/12/13 09:22:00;;;;;;;63.83;35.92;;;5.90;99.90;;;;;;5072231;28;20202;-49
2020/12/13 09:24:28;;;;;;;67.03;38.35;;;5.90;99.90;;;;;;5047812;28;20211;-49
2020/12/13 09:27:06;;;;;;;67.32;37.95;;;6.10;99.90;;;;;;5072224;28;20663;-49
2020/12/13 09:29:34;;;;;;;66.22;37.92;;;5.90;99.90;;;;;;5071910;28;20264;-48
2020/12/13 09:32:00;;;;;;;64.00;37.55;;;6.40;99.90;;;;;;5071930;28;20242;-49
2020/12/13 09:34:27;;;;;;;64.22;37.70;;;6.00;99.90;;;;;;5072077;28;20256;-50
2020/12/13 09:36:54;;;;;;;63.78;35.97;;;6.00;99.90;;;;;;5072140;28;20659;-50
2020/12/13 09:39:21;;;;;;;57.83;36.35;;;6.10;99.90;;;;;;5071933;28;20215;-49
2020/12/13 09:41:48;;;;;;;63.72;35.78;;;6.10;99.90;;;;;;5071699;28;20195;-49
2020/12/13 09:44:15;;;;;;;62.55;37.30;;;6.10;99.90;;;;;;5071555;28;20244;-49
2020/12/13 09:46:41;;;;;;;64.43;38.53;;;6.40;99.90;;;;;;5086224;28;20201;-50
2020/12/13 09:49:08;;;;;;;56.50;34.67;;;6.10;99.90;;;;;;5092466;28;20878;-49
2020/12/13 09:51:35;;;;;;;59.63;36.10;;;6.10;99.90;;;;;;5088700;28;20214;-50
2020/12/13 09:54:01;;;;;;;61.40;37.40;;;6.10;99.90;;;;;;5073506;28;20433;-49
2020/12/13 09:56:29;;;;;;;59.17;37.45;;;6.00;99.90;;;;;;5073234;28;20903;-48
2020/12/13 09:58:55;;;;;;;66.68;37.92;;;6.20;99.90;;;;;;5072877;28;20222;-47
2020/12/13 10:01:22;;;;;;;57.75;35.05;;;6.40;99.90;;;;;;5082195;28;20469;-46
2020/12/13 10:03:50;;;;;;;56.45;36.83;;;6.10;99.90;;;;;;5092058;28;20282;-48
2020/12/13 10:09:08;;;;;;;59.55;36.95;;;6.30;99.90;;;;;;5091956;28;20326;-48
2020/12/13 10:11:37;;;;;;;56.50;34.15;;;6.60;99.90;;;;;;5091322;28;20705;-49
2020/12/13 10:14:05;;;;;;;57.70;36.58;;;6.10;99.90;;;;;;5091350;28;20272;-49
2020/12/13 10:16:31;;;;;;;52.70;33.38;;;6.10;99.90;;;;;;5092206;28;20199;-49
2020/12/13 10:18:58;;;;;;;57.67;34.43;;;6.60;99.90;;;;;;5091875;28;20343;-47
2020/12/13 10:21:25;;;;;;;50.25;33.50;;;6.60;99.90;;;;;;5091702;28;20453;-48
2020/12/13 10:23:53;;;;;;;57.03;34.20;;;6.40;99.90;;;;;;5071970;28;20241;-48
2020/12/13 10:26:22;;;;;;;52.73;34.50;;;6.50;99.90;;;;;;5071218;28;20491;-47
2020/12/13 10:28:50;;;;;;;48.03;32.75;;;6.30;99.90;;;;;;5071672;28;20473;-48
2020/12/13 10:31:17;;;;;;;50.17;32.90;;;6.60;99.90;;;;;;5071097;28;20222;-46
2020/12/13 10:33:44;;;;;;;52.70;33.33;;;6.40;99.90;;;;;;5070742;28;20195;-49
2020/12/13 10:36:11;;;;;;;50.22;33.08;;;6.60;99.90;;;;;;5071205;28;20198;-49
2020/12/13 10:38:39;;;;;;;51.63;33.43;;;6.50;99.90;;;;;;5077935;28;20207;-48
2020/12/13 10:41:06;;;;;;;50.30;33.30;;;6.60;99.90;;;;;;5091025;28;20628;-47
2020/12/13 10:43:33;;;;;;;52.20;34.10;;;6.60;99.90;;;;;;5074686;28;20976;-49
2020/12/13 10:46:03;;;;;;;53.07;34.33;;;6.50;99.90;;;;;;5094593;28;20478;-49
2020/12/13 10:48:30;;;;;;;51.37;33.70;;;6.60;99.90;;;;;;5095253;28;20444;-48
2020/12/13 10:50:57;;;;;;;46.83;32.97;;;6.00;99.90;;;;;;5094914;28;20517;-48
2020/12/13 10:53:23;;;;;;;49.00;33.40;;;6.50;99.90;;;;;;5084309;28;21710;-48
2020/12/13 10:55:50;;;;;;;46.10;30.87;;;6.70;99.90;;;;;;5093832;28;20536;-48
2020/12/13 10:58:17;;;;;;;50.77;35.30;;;7.10;99.90;;;;;;5094823;28;20495;-49
2020/12/13 11:00:43;;;;;;;46.03;31.70;;;6.80;99.90;;;;;;5090081;28;20405;-48
2020/12/13 11:03:10;;;;;;;50.77;34.43;;;6.70;99.90;;;;;;5075201;28;20430;-49
2020/12/13 11:05:37;;;;;;;47.10;32.42;;;6.90;99.90;;;;;;5074698;28;20469;-49
2020/12/13 11:08:03;;;;;;;52.40;34.80;;;6.90;99.90;;;;;;5074355;28;20775;-49
2020/12/13 11:10:30;;;;;;;52.90;34.00;;;7.00;99.90;;;;;;5074815;28;20565;-48
2020/12/13 11:12:56;;;;;;;50.00;33.80;;;7.10;99.90;;;;;;5081965;28;20922;-49
2020/12/13 11:15:23;;;;;;;51.60;34.07;;;6.90;99.90;;;;;;5094583;28;20495;-49
2020/12/13 11:17:49;;;;;;;51.70;35.23;;;6.90;99.90;;;;;;5094231;28;20432;-49
2020/12/13 11:20:17;;;;;;;46.80;33.70;;;6.90;99.90;;;;;;5094480;28;20429;-49
2020/12/13 11:22:43;;;;;;;50.40;32.50;;;7.10;99.90;;;;;;5092033;28;20468;-48
2020/12/13 11:25:10;;;;;;;58.67;34.67;;;7.00;99.90;;;;;;5095191;28;20470;-49
2020/12/13 11:27:36;;;;;;;50.03;35.30;;;6.80;99.90;;;;;;5094776;28;20796;-48
2020/12/13 11:30:06;;;;;;;54.87;34.53;;;6.90;99.90;;;;;;5094220;28;20952;-48
2020/12/13 11:32:32;;;;;;;60.63;38.73;;;7.10;99.90;;;;;;5093408;28;20453;-48
2020/12/13 11:34:59;;;;;;;54.27;34.37;;;7.20;99.90;;;;;;5094203;28;20979;-49
2020/12/13 11:37:26;;;;;;;55.00;34.43;;;7.00;99.90;;;;;;5091182;28;20451;-49
2020/12/13 11:39:53;;;;;;;49.70;33.65;;;7.30;99.90;;;;;;5074229;28;20431;-49
2020/12/13 11:42:20;;;;;;;54.80;36.17;;;7.00;99.90;;;;;;5074625;28;20215;-47
2020/12/13 11:44:46;;;;;;;55.77;36.20;;;7.20;99.90;;;;;;5074353;28;20448;-48
2020/12/13 11:47:13;;;;;;;49.67;33.50;;;7.20;99.90;;;;;;5073890;28;20814;-48
2020/12/13 11:49:40;;;;;;;50.83;35.20;;;7.40;99.90;;;;;;5074005;28;20521;-48
2020/12/13 11:52:07;;;;;;;47.07;34.97;;;7.30;99.90;;;;;;5073707;28;20479;-48
2020/12/13 11:54:34;;;;;;;55.80;36.07;;;7.50;99.90;;;;;;5074408;28;20442;-47
2020/12/13 11:57:00;;;;;;;48.50;33.13;;;7.30;99.90;;;;;;5074178;28;20491;-48
2020/12/13 11:59:28;;;;;;;55.57;34.87;;;7.40;99.90;;;;;;5073800;28;20496;-49
2020/12/13 12:01:55;;;;;;;53.07;34.60;;;7.20;99.90;;;;;;5087289;28;20458;-49
2020/12/13 12:04:21;;;;;;;47.57;34.70;;;7.20;99.90;;;;;;5093911;28;20429;-49
2020/12/13 12:06:48;;;;;;;53.90;36.27;;;7.40;99.90;;;;;;5093671;28;20507;-49
2020/12/13 12:09:16;;;;;;;53.70;34.63;;;7.40;99.90;;;;;;5088705;28;20535;-49
2020/12/13 12:11:44;;;;;;;52.40;34.77;;;7.30;99.90;;;;;;5093256;28;20522;-49
2020/12/13 12:14:11;;;;;;;54.53;37.30;;;7.50;99.90;;;;;;5092780;28;20533;-49
2020/12/13 12:16:40;;;;;;;51.43;35.53;;;7.60;99.90;;;;;;5093646;28;20457;-49
2020/12/13 12:19:07;;;;;;;52.83;36.23;;;7.60;99.90;;;;;;5093378;28;20480;-49
2020/12/13 12:21:34;;;;;;;50.60;34.70;;;7.90;99.90;;;;;;5093258;28;20404;-49
2020/12/13 12:24:02;;;;;;;56.63;35.90;;;7.80;99.90;;;;;;5093063;28;20466;-47
2020/12/13 12:26:33;;;;;;;48.50;35.37;;;7.80;99.90;;;;;;5093189;28;20900;-47
2020/12/13 12:29:01;;;;;;;51.03;33.20;;;7.70;99.90;;;;;;5092419;28;20530;-47
2020/12/13 12:31:28;;;;;;;52.93;37.50;;;7.60;99.90;;;;;;5093159;28;20966;-46
2020/12/13 12:33:55;;;;;;;55.10;34.53;;;7.40;99.90;;;;;;5083329;28;20453;-48
2020/12/13 12:36:25;;;;;;;48.07;34.37;;;7.70;99.90;;;;;;5084260;28;20450;-48
2020/12/13 12:38:52;;;;;;;48.90;33.47;;;7.50;99.90;;;;;;5072711;28;20459;-48
2020/12/13 12:41:21;;;;;;;56.63;36.60;;;7.80;99.90;;;;;;5072440;28;20455;-48
2020/12/13 12:43:50;;;;;;;53.47;35.80;;;7.50;99.90;;;;;;5072363;28;20406;-48
2020/12/13 12:46:19;;;;;;;54.33;35.70;;;7.70;99.90;;;;;;5078628;28;20486;-49
2020/12/13 12:48:47;;;;;;;58.00;36.93;;;7.70;99.90;;;;;;5092899;28;20837;-47
2020/12/13 12:51:16;;;;;;;54.23;37.50;;;7.70;99.90;;;;;;5093292;28;20479;-47